Time;durP1;ratioP1;P1;durP2;ratioP2;P2;SDS_P1;SDS_P2;PMS_P1;PMS_P2;Temp;Humidity;BMP_temperature;BMP_pressure;BME280_temperature;BME280_humidity;BME280_pressure;Samples;Min_cycle;Max_cycle;Signal;HPM_P1;HPM_P2
2023/12/16 00:00:45;;;;;;;27.95;18.13;;;6.60;99.90;;;;;;4901489;29;20048;-82
2023/12/16 00:03:12;;;;;;;31.05;18.23;;;6.70;99.90;;;;;;4895808;29;20058;-83
2023/12/16 00:05:39;;;;;;;26.42;18.95;;;6.60;99.90;;;;;;4896574;29;20052;-85
2023/12/16 00:08:06;;;;;;;41.33;17.73;;;6.60;99.90;;;;;;4902836;29;20438;-83
2023/12/16 00:10:33;;;;;;;33.55;18.40;;;6.50;99.90;;;;;;4893992;29;20135;-83
2023/12/16 00:13:00;;;;;;;27.13;17.88;;;6.60;99.90;;;;;;4878731;29;20048;-86
2023/12/16 00:15:27;;;;;;;24.77;17.65;;;6.60;99.90;;;;;;4889919;29;20765;-84
2023/12/16 00:17:54;;;;;;;28.48;17.38;;;6.60;99.90;;;;;;4894186;29;20520;-84
2023/12/16 00:20:21;;;;;;;34.90;17.23;;;6.50;99.90;;;;;;4899589;29;20071;-82
2023/12/16 00:22:48;;;;;;;23.40;17.50;;;6.50;99.90;;;;;;4906203;29;20101;-82
2023/12/16 00:25:15;;;;;;;29.30;18.27;;;6.50;99.90;;;;;;4889574;29;20055;-84
2023/12/16 00:27:42;;;;;;;26.45;15.68;;;6.50;99.90;;;;;;4919668;29;20056;-86
2023/12/16 00:30:09;;;;;;;30.85;16.65;;;6.60;99.90;;;;;;4909516;29;20047;-82
2023/12/16 00:32:39;;;;;;;26.13;15.68;;;6.50;99.90;;;;;;4901916;29;20052;-81
2023/12/16 00:35:10;;;;;;;28.25;16.65;;;6.60;99.90;;;;;;4897426;29;20052;-83
2023/12/16 00:37:37;;;;;;;25.42;17.20;;;6.60;99.90;;;;;;4887358;29;20048;-82
2023/12/16 00:40:05;;;;;;;26.10;16.75;;;6.60;99.90;;;;;;4894930;29;20052;-81
2023/12/16 00:42:32;;;;;;;28.38;17.25;;;6.60;99.90;;;;;;4889408;29;20080;-83
2023/12/16 00:44:59;;;;;;;26.23;17.88;;;6.60;99.90;;;;;;4903863;29;20119;-87
2023/12/16 00:47:26;;;;;;;22.38;16.75;;;6.60;99.90;;;;;;4893589;29;20470;-82
2023/12/16 00:49:53;;;;;;;28.40;17.33;;;6.50;99.90;;;;;;4893194;29;20107;-82
2023/12/16 00:52:21;;;;;;;26.73;16.25;;;6.60;99.90;;;;;;4890713;29;20116;-84
2023/12/16 00:54:48;;;;;;;25.88;16.40;;;6.50;99.90;;;;;;4917101;29;20112;-87
2023/12/16 00:57:14;;;;;;;19.73;16.92;;;6.50;99.90;;;;;;4895097;29;20044;-85
2023/12/16 00:59:41;;;;;;;25.95;16.73;;;6.50;99.90;;;;;;4925107;29;20050;-85
2023/12/16 01:02:08;;;;;;;33.42;16.83;;;6.50;99.90;;;;;;4925798;29;20032;-86
2023/12/16 01:04:36;;;;;;;29.05;16.75;;;6.50;99.90;;;;;;4916938;29;20048;-83
2023/12/16 01:07:03;;;;;;;23.95;17.40;;;6.50;99.90;;;;;;4912829;29;20108;-82
2023/12/16 01:09:30;;;;;;;26.10;15.93;;;6.50;99.90;;;;;;4882019;29;20059;-82
2023/12/16 01:11:57;;;;;;;29.65;16.52;;;6.60;99.90;;;;;;4904654;29;20522;-83
2023/12/16 01:14:23;;;;;;;24.58;15.70;;;6.50;99.90;;;;;;4892191;29;20483;-84
2023/12/16 01:16:50;;;;;;;23.60;15.57;;;6.50;99.90;;;;;;4883777;29;20044;-82
2023/12/16 01:19:18;;;;;;;22.02;15.13;;;6.50;99.90;;;;;;4919477;29;20079;-83
2023/12/16 01:21:47;;;;;;;27.75;16.23;;;6.50;99.90;;;;;;4886521;29;20108;-81
2023/12/16 01:24:14;;;;;;;20.35;15.65;;;6.60;99.90;;;;;;4902274;29;20048;-82
2023/12/16 01:26:41;;;;;;;24.35;16.33;;;6.50;99.90;;;;;;4900996;29;20052;-83
2023/12/16 01:29:08;;;;;;;28.15;16.50;;;6.40;99.90;;;;;;4887895;29;20050;-86
2023/12/16 01:31:35;;;;;;;29.13;16.13;;;6.40;99.90;;;;;;4888341;29;20052;-82
2023/12/16 01:34:02;;;;;;;24.25;15.88;;;6.40;99.90;;;;;;4893976;29;20067;-85
2023/12/16 01:36:29;;;;;;;23.73;16.23;;;6.40;99.90;;;;;;4883627;29;20060;-82
2023/12/16 01:38:56;;;;;;;22.02;17.40;;;6.40;99.90;;;;;;4896248;29;20052;-82
2023/12/16 01:41:23;;;;;;;27.20;15.38;;;6.40;99.90;;;;;;4904070;29;20151;-81
2023/12/16 01:43:50;;;;;;;31.88;17.00;;;6.40;99.90;;;;;;4900066;29;20052;-82
2023/12/16 01:46:17;;;;;;;32.65;18.02;;;6.40;99.90;;;;;;4892277;29;20698;-86
2023/12/16 01:48:44;;;;;;;20.67;16.10;;;6.40;99.90;;;;;;4891287;29;20729;-84
2023/12/16 01:51:13;;;;;;;25.70;17.25;;;6.40;99.90;;;;;;4904373;29;20040;-81
2023/12/16 01:53:40;;;;;;;28.90;16.55;;;6.50;99.90;;;;;;4886099;29;20123;-82
2023/12/16 01:56:08;;;;;;;22.27;16.15;;;6.50;99.90;;;;;;4917947;29;20040;-84
2023/12/16 01:58:37;;;;;;;26.15;15.95;;;6.50;99.90;;;;;;4890817;29;20111;-84
2023/12/16 02:01:05;;;;;;;25.38;16.30;;;6.50;99.90;;;;;;4919732;29;20036;-82
2023/12/16 02:03:32;;;;;;;24.98;16.92;;;6.40;99.90;;;;;;4898925;29;20048;-82
2023/12/16 02:06:01;;;;;;;22.38;17.35;;;6.40;99.90;;;;;;4903943;29;20123;-85
2023/12/16 02:08:27;;;;;;;24.05;16.25;;;6.40;99.90;;;;;;4886921;29;20056;-82
2023/12/16 02:10:54;;;;;;;25.95;16.15;;;6.40;99.90;;;;;;4904357;29;20054;-83
2023/12/16 02:13:23;;;;;;;31.80;17.48;;;6.40;99.90;;;;;;4876580;29;20100;-83
2023/12/16 02:15:51;;;;;;;24.17;16.63;;;6.40;99.90;;;;;;4903290;29;20075;-83
2023/12/16 02:18:18;;;;;;;29.52;16.95;;;6.40;99.90;;;;;;4896457;29;20078;-84
2023/12/16 02:20:46;;;;;;;22.27;17.23;;;6.40;99.90;;;;;;4894144;29;20393;-84
2023/12/16 02:23:17;;;;;;;19.27;16.17;;;6.40;99.90;;;;;;4890215;29;20567;-85
2023/12/16 02:25:45;;;;;;;32.25;17.20;;;6.40;99.90;;;;;;4924212;29;20051;-84
2023/12/16 02:28:12;;;;;;;27.13;17.02;;;6.40;99.90;;;;;;4907795;29;20255;-85
2023/12/16 02:30:39;;;;;;;26.50;17.77;;;6.40;99.90;;;;;;4904683;29;20268;-83
2023/12/16 02:33:06;;;;;;;26.25;17.50;;;6.40;99.90;;;;;;4901696;29;20062;-84
2023/12/16 02:35:33;;;;;;;26.33;19.80;;;6.40;99.90;;;;;;4874496;29;20053;-82
2023/12/16 02:38:00;;;;;;;25.70;18.27;;;6.40;99.90;;;;;;4892381;29;20051;-82
2023/12/16 02:40:27;;;;;;;26.02;17.92;;;6.40;99.90;;;;;;4890603;29;20118;-86
2023/12/16 02:42:54;;;;;;;24.88;18.23;;;6.40;99.90;;;;;;4905126;29;20079;-82
2023/12/16 02:45:21;;;;;;;28.52;18.40;;;6.40;99.90;;;;;;4902066;29;20056;-84
2023/12/16 02:47:48;;;;;;;21.08;17.10;;;6.40;99.90;;;;;;4885729;29;20052;-82
2023/12/16 02:50:15;;;;;;;26.80;16.83;;;6.40;99.90;;;;;;4905549;29;20080;-82
2023/12/16 02:52:42;;;;;;;23.48;18.15;;;6.40;99.90;;;;;;4894546;29;20044;-83
2023/12/16 02:55:09;;;;;;;23.70;17.55;;;6.40;99.90;;;;;;4887316;29;20115;-83
2023/12/16 02:57:36;;;;;;;29.15;18.15;;;6.40;99.90;;;;;;4894008;29;20059;-81
2023/12/16 03:00:04;;;;;;;24.77;19.00;;;6.30;99.90;;;;;;4894171;29;20499;-85
2023/12/16 03:02:31;;;;;;;22.20;18.48;;;6.40;99.90;;;;;;4903308;29;20575;-82
2023/12/16 03:04:58;;;;;;;29.30;18.23;;;6.40;99.90;;;;;;4889883;29;20068;-82
2023/12/16 03:07:25;;;;;;;26.25;17.98;;;6.40;99.90;;;;;;4917260;29;20538;-86
2023/12/16 03:09:52;;;;;;;25.40;18.55;;;6.30;99.90;;;;;;4891196;29;20591;-81
2023/12/16 03:12:20;;;;;;;29.00;20.42;;;6.40;99.90;;;;;;4891634;29;20048;-87
2023/12/16 03:14:47;;;;;;;22.10;17.60;;;6.40;99.90;;;;;;4876175;29;20052;-83
2023/12/16 03:17:15;;;;;;;27.10;17.35;;;6.50;99.90;;;;;;4907113;29;20048;-84
2023/12/16 03:19:42;;;;;;;23.25;18.17;;;6.40;99.90;;;;;;4894764;29;20048;-86
2023/12/16 03:22:09;;;;;;;27.33;18.33;;;6.40;99.90;;;;;;4897492;29;20048;-82
2023/12/16 03:24:36;;;;;;;26.30;19.45;;;6.40;99.90;;;;;;4889504;29;20052;-84
2023/12/16 03:27:03;;;;;;;26.10;18.83;;;6.40;99.90;;;;;;4924056;29;20501;-82
2023/12/16 03:29:31;;;;;;;24.23;18.42;;;6.50;99.90;;;;;;4888460;29;20048;-83
2023/12/16 03:31:58;;;;;;;27.38;19.80;;;6.40;99.90;;;;;;4898130;29;20259;-83
2023/12/16 03:34:25;;;;;;;21.88;18.08;;;6.50;99.90;;;;;;4893659;29;20071;-84
2023/12/16 03:36:52;;;;;;;22.50;18.38;;;6.40;99.90;;;;;;4918916;29;20103;-82
2023/12/16 03:39:19;;;;;;;30.65;18.92;;;6.40;99.90;;;;;;4892465;29;20059;-84
2023/12/16 03:41:46;;;;;;;25.23;18.98;;;6.40;99.90;;;;;;4895890;29;20048;-82
2023/12/16 03:44:12;;;;;;;35.25;17.88;;;6.50;99.90;;;;;;4897727;29;20044;-83
2023/12/16 03:46:39;;;;;;;22.73;18.83;;;6.50;99.90;;;;;;4915818;29;20173;-86
2023/12/16 03:49:06;;;;;;;26.25;19.13;;;6.50;99.90;;;;;;4894047;29;20058;-82
2023/12/16 03:51:33;;;;;;;20.85;18.67;;;6.40;99.90;;;;;;4900756;29;20064;-82
2023/12/16 03:54:00;;;;;;;27.17;18.90;;;6.40;99.90;;;;;;4893882;29;20420;-82
2023/12/16 03:56:27;;;;;;;22.92;18.52;;;6.40;99.90;;;;;;4889352;29;20052;-82
2023/12/16 03:58:54;;;;;;;23.55;19.00;;;6.40;99.90;;;;;;4898524;29;20040;-83
2023/12/16 04:01:21;;;;;;;26.65;21.73;;;6.40;99.90;;;;;;4906532;29;20741;-85
2023/12/16 04:03:48;;;;;;;25.05;22.60;;;6.30;99.90;;;;;;4907171;29;20048;-82
2023/12/16 04:06:15;;;;;;;25.92;23.58;;;6.40;99.90;;;;;;4907477;29;20048;-82
2023/12/16 04:08:42;;;;;;;24.27;22.15;;;6.40;99.90;;;;;;4906233;29;20130;-84
2023/12/16 04:11:09;;;;;;;23.73;18.15;;;6.40;99.90;;;;;;4892560;29;20047;-85
2023/12/16 04:13:36;;;;;;;28.20;19.52;;;6.40;99.90;;;;;;4906858;29;20055;-83
2023/12/16 04:16:04;;;;;;;23.65;18.55;;;6.40;99.90;;;;;;4893228;29;20048;-87
2023/12/16 04:18:31;;;;;;;22.33;18.17;;;6.40;99.90;;;;;;4894785;29;20040;-82
2023/12/16 04:20:59;;;;;;;26.70;18.52;;;6.40;99.90;;;;;;4891813;29;20060;-82
2023/12/16 04:23:27;;;;;;;21.70;18.42;;;6.30;99.90;;;;;;4888624;29;20127;-82
2023/12/16 04:25:55;;;;;;;21.90;17.88;;;6.40;99.90;;;;;;4921604;29;20040;-81
2023/12/16 04:28:21;;;;;;;21.50;18.23;;;6.30;99.90;;;;;;4876545;29;20052;-83
2023/12/16 04:30:48;;;;;;;25.00;20.35;;;6.30;99.90;;;;;;4892368;29;20129;-82
2023/12/16 04:33:15;;;;;;;25.85;18.80;;;6.30;99.90;;;;;;4910673;29;20108;-83
2023/12/16 04:35:42;;;;;;;25.83;19.17;;;6.40;99.90;;;;;;4895786;29;20072;-82
2023/12/16 04:38:09;;;;;;;28.33;18.23;;;6.30;99.90;;;;;;4910746;29;20044;-83
2023/12/16 04:40:36;;;;;;;20.02;18.02;;;6.40;99.90;;;;;;4889610;29;20048;-83
2023/12/16 04:43:03;;;;;;;24.80;18.98;;;6.40;99.90;;;;;;4897155;29;20136;-83
2023/12/16 04:45:30;;;;;;;23.70;18.45;;;6.40;99.90;;;;;;4905633;29;20430;-87
2023/12/16 04:47:58;;;;;;;20.15;17.38;;;6.40;99.90;;;;;;4920302;29;20131;-83
2023/12/16 04:50:25;;;;;;;23.65;17.73;;;6.40;99.90;;;;;;4894725;29;20040;-83
2023/12/16 04:52:52;;;;;;;34.17;18.45;;;6.40;99.90;;;;;;4887862;29;20052;-84
2023/12/16 04:55:19;;;;;;;27.48;18.38;;;6.40;99.90;;;;;;4905626;29;20059;-82
2023/12/16 04:57:46;;;;;;;23.30;18.42;;;6.40;99.90;;;;;;4893540;29;20052;-83
2023/12/16 05:00:14;;;;;;;21.63;19.50;;;6.40;99.90;;;;;;4904900;29;20048;-83
2023/12/16 05:02:41;;;;;;;26.83;18.60;;;6.40;99.90;;;;;;4905383;29;20063;-85
2023/12/16 05:05:08;;;;;;;26.98;18.65;;;6.40;99.90;;;;;;4892644;29;20040;-83
2023/12/16 05:07:36;;;;;;;21.75;18.65;;;6.40;99.90;;;;;;4891641;29;20056;-84
2023/12/16 05:10:04;;;;;;;25.00;19.67;;;6.40;99.90;;;;;;4898198;29;20134;-85
2023/12/16 05:12:31;;;;;;;28.35;19.50;;;6.40;99.90;;;;;;4893118;29;20107;-85
2023/12/16 05:15:03;;;;;;;28.65;20.35;;;6.40;99.90;;;;;;4888901;29;20043;-84
2023/12/16 05:17:30;;;;;;;34.63;20.15;;;6.40;99.90;;;;;;4889150;29;20107;-83
2023/12/16 05:19:57;;;;;;;22.30;19.48;;;6.40;99.90;;;;;;4896931;29;20074;-83
2023/12/16 05:22:24;;;;;;;32.97;19.45;;;6.40;99.90;;;;;;4894921;29;20166;-82
2023/12/16 05:24:51;;;;;;;22.20;18.88;;;6.40;99.90;;;;;;4888069;29;20052;-83
2023/12/16 05:27:18;;;;;;;24.77;18.75;;;6.40;99.90;;;;;;4896640;29;20659;-83
2023/12/16 05:29:45;;;;;;;30.00;18.10;;;6.40;99.90;;;;;;4879048;29;20051;-83
2023/12/16 05:32:12;;;;;;;29.60;19.95;;;6.40;99.90;;;;;;4892890;29;20044;-83
2023/12/16 05:34:39;;;;;;;30.83;19.65;;;6.40;99.90;;;;;;4891343;29;20075;-85
2023/12/16 05:37:06;;;;;;;27.75;20.70;;;6.40;99.90;;;;;;4910612;29;20105;-85
2023/12/16 05:39:33;;;;;;;26.83;19.98;;;6.50;99.90;;;;;;4880632;29;20060;-84
2023/12/16 05:42:00;;;;;;;25.42;20.00;;;6.40;99.90;;;;;;4891677;29;20060;-84
2023/12/16 05:44:27;;;;;;;27.38;20.50;;;6.40;99.90;;;;;;4892413;29;20103;-85
2023/12/16 05:46:54;;;;;;;21.25;19.00;;;6.40;99.90;;;;;;4889846;29;20048;-82
2023/12/16 05:49:21;;;;;;;24.45;19.17;;;6.40;99.90;;;;;;4891448;29;20048;-83
2023/12/16 05:51:48;;;;;;;26.85;20.92;;;6.40;99.90;;;;;;4894009;29;21041;-83
2023/12/16 05:54:16;;;;;;;33.17;20.63;;;6.40;99.90;;;;;;4893748;29;20551;-83
2023/12/16 05:56:42;;;;;;;22.70;19.67;;;6.40;99.90;;;;;;4895024;29;20086;-82
2023/12/16 05:59:09;;;;;;;23.83;20.88;;;6.40;99.90;;;;;;4908356;29;20048;-84
2023/12/16 06:01:36;;;;;;;25.88;20.23;;;6.40;99.90;;;;;;4897564;29;20060;-85
2023/12/16 06:04:03;;;;;;;30.55;20.60;;;6.40;99.90;;;;;;4913431;29;20583;-87
2023/12/16 06:06:30;;;;;;;31.63;21.50;;;6.40;99.90;;;;;;4907158;29;20108;-85
2023/12/16 06:08:57;;;;;;;25.27;20.83;;;6.40;99.90;;;;;;4895803;29;20510;-82
2023/12/16 06:11:24;;;;;;;24.67;21.83;;;6.40;99.90;;;;;;4893390;29;20539;-82
2023/12/16 06:13:51;;;;;;;32.60;22.05;;;6.40;99.90;;;;;;4904406;29;20055;-82
2023/12/16 06:16:18;;;;;;;26.05;21.02;;;6.40;99.90;;;;;;4901887;29;20521;-83
2023/12/16 06:18:48;;;;;;;22.23;19.83;;;6.40;99.90;;;;;;4889887;29;20540;-82
2023/12/16 06:21:15;;;;;;;30.90;20.80;;;6.40;99.90;;;;;;4905316;29;20044;-82
2023/12/16 06:23:42;;;;;;;24.83;20.98;;;6.40;99.90;;;;;;4906447;29;20726;-84
2023/12/16 06:26:09;;;;;;;23.33;20.88;;;6.50;99.90;;;;;;4903408;29;20052;-82
2023/12/16 06:28:36;;;;;;;35.17;22.50;;;6.50;99.90;;;;;;4886001;29;20063;-78
2023/12/16 06:31:03;;;;;;;25.67;21.55;;;6.50;99.90;;;;;;4895036;29;20443;-79
2023/12/16 06:33:31;;;;;;;25.20;20.10;;;6.40;99.90;;;;;;4874420;29;20052;-80
2023/12/16 06:35:58;;;;;;;25.70;19.77;;;6.40;99.90;;;;;;4887119;29;20072;-80
2023/12/16 06:38:25;;;;;;;27.85;21.42;;;6.50;99.90;;;;;;4884102;29;20123;-79
2023/12/16 06:40:52;;;;;;;28.77;21.38;;;6.50;99.90;;;;;;4879214;29;20052;-79
2023/12/16 06:43:19;;;;;;;32.00;21.55;;;6.50;99.90;;;;;;4881868;29;20071;-79
2023/12/16 06:45:45;;;;;;;25.98;20.05;;;6.50;99.90;;;;;;4879210;29;20056;-80
2023/12/16 06:48:12;;;;;;;24.83;20.23;;;6.50;99.90;;;;;;4876974;29;20345;-79
2023/12/16 06:50:39;;;;;;;28.77;20.23;;;6.50;99.90;;;;;;4880096;29;20058;-78
2023/12/16 06:53:07;;;;;;;26.63;20.38;;;6.50;99.90;;;;;;4913775;29;20176;-79
2023/12/16 06:55:34;;;;;;;24.60;20.48;;;6.40;99.90;;;;;;4895945;29;20056;-78
2023/12/16 06:58:01;;;;;;;29.08;20.95;;;6.50;99.90;;;;;;4896394;29;20530;-78
2023/12/16 07:00:28;;;;;;;25.23;22.15;;;6.50;99.90;;;;;;4883205;29;20060;-79
2023/12/16 07:02:54;;;;;;;27.73;20.27;;;6.50;99.90;;;;;;4889159;29;20144;-80
2023/12/16 07:05:21;;;;;;;26.38;21.25;;;6.50;99.90;;;;;;4885403;29;20052;-78
2023/12/16 07:07:48;;;;;;;25.98;21.20;;;6.50;99.90;;;;;;4885813;29;20704;-80
2023/12/16 07:10:15;;;;;;;33.10;20.55;;;6.60;99.90;;;;;;4884882;29;20546;-79
2023/12/16 07:12:42;;;;;;;24.63;22.00;;;6.50;99.90;;;;;;4888220;29;20049;-79
2023/12/16 07:15:10;;;;;;;25.83;23.02;;;6.60;99.90;;;;;;4874236;29;20054;-78
2023/12/16 07:17:37;;;;;;;22.42;20.13;;;6.60;99.90;;;;;;4891409;29;20408;-78
2023/12/16 07:20:05;;;;;;;32.83;21.35;;;6.60;99.90;;;;;;4867462;29;20048;-78
2023/12/16 07:22:32;;;;;;;25.05;19.42;;;6.60;99.90;;;;;;4910001;29;20111;-80
2023/12/16 07:24:59;;;;;;;24.83;20.20;;;6.60;99.90;;;;;;4911289;29;20050;-81
2023/12/16 07:27:30;;;;;;;21.30;19.20;;;6.70;99.90;;;;;;4904188;29;20051;-78
2023/12/16 07:29:57;;;;;;;25.27;20.50;;;6.70;99.90;;;;;;4889482;29;20167;-77
2023/12/16 07:32:24;;;;;;;25.98;21.30;;;6.70;99.90;;;;;;4883781;29;20047;-78
2023/12/16 07:34:51;;;;;;;26.13;20.27;;;6.70;99.90;;;;;;4898579;29;20085;-78
2023/12/16 07:37:21;;;;;;;25.08;20.92;;;6.80;99.90;;;;;;4892371;29;20040;-77
2023/12/16 07:39:48;;;;;;;28.85;20.92;;;6.80;99.90;;;;;;4900461;29;20600;-78
2023/12/16 07:42:15;;;;;;;51.80;39.97;;;6.70;99.90;;;;;;4889286;29;20048;-77
2023/12/16 07:44:41;;;;;;;30.98;20.08;;;6.70;99.90;;;;;;4879281;29;20053;-77
2023/12/16 07:47:08;;;;;;;26.05;19.73;;;6.70;99.90;;;;;;4909531;29;20048;-77
2023/12/16 07:49:35;;;;;;;24.58;20.83;;;6.80;99.90;;;;;;4884453;29;20744;-78
2023/12/16 07:52:02;;;;;;;26.13;20.40;;;6.80;99.90;;;;;;4891142;29;20048;-78
2023/12/16 07:54:31;;;;;;;27.15;21.90;;;6.80;99.90;;;;;;4879369;29;20111;-78
2023/12/16 07:56:58;;;;;;;29.08;21.05;;;6.80;99.90;;;;;;4886798;29;20527;-77
2023/12/16 07:59:25;;;;;;;31.02;20.05;;;6.80;99.90;;;;;;4887544;29;20048;-77
2023/12/16 08:01:53;;;;;;;27.83;20.20;;;6.80;99.90;;;;;;4892881;29;20051;-77
2023/12/16 08:04:20;;;;;;;30.67;21.02;;;6.80;99.90;;;;;;4883872;29;20060;-77
2023/12/16 08:06:47;;;;;;;25.20;19.90;;;6.80;99.90;;;;;;4865751;29;20062;-78
2023/12/16 08:09:14;;;;;;;25.25;22.75;;;6.80;99.90;;;;;;4891392;29;20151;-77
2023/12/16 08:11:41;;;;;;;27.95;23.02;;;6.90;99.90;;;;;;4896790;29;20047;-77
2023/12/16 08:14:08;;;;;;;37.85;25.38;;;6.90;99.90;;;;;;4902473;29;20089;-77
2023/12/16 08:16:38;;;;;;;35.22;32.28;;;6.90;99.90;;;;;;4892814;29;20423;-77
2023/12/16 08:19:05;;;;;;;34.42;31.42;;;7.00;99.90;;;;;;4885726;29;20067;-77
2023/12/16 08:21:33;;;;;;;35.03;31.23;;;6.90;99.90;;;;;;4889903;29;20909;-78
2023/12/16 08:24:00;;;;;;;36.55;33.25;;;7.00;99.90;;;;;;4872055;29;20053;-78
2023/12/16 08:26:27;;;;;;;36.00;31.60;;;7.00;99.90;;;;;;4902078;29;20959;-77
2023/12/16 08:28:54;;;;;;;32.70;29.90;;;7.10;99.90;;;;;;4882694;29;20086;-78
2023/12/16 08:31:21;;;;;;;35.08;32.05;;;7.10;99.90;;;;;;4898173;29;20182;-78
2023/12/16 08:33:47;;;;;;;35.72;31.83;;;7.10;99.90;;;;;;4882835;29;20075;-78
2023/12/16 08:36:15;;;;;;;42.20;29.98;;;7.10;99.90;;;;;;4884637;29;20131;-78
2023/12/16 08:38:41;;;;;;;32.55;29.50;;;7.10;99.90;;;;;;4886351;29;20071;-78
2023/12/16 08:41:09;;;;;;;34.30;29.60;;;7.10;99.90;;;;;;4902711;29;20055;-77
2023/12/16 08:43:37;;;;;;;37.47;30.92;;;7.20;99.90;;;;;;4876864;29;20048;-78
2023/12/16 08:46:04;;;;;;;36.28;30.48;;;7.20;99.90;;;;;;4889959;29;22293;-78
2023/12/16 08:48:31;;;;;;;32.40;29.52;;;7.20;99.90;;;;;;4874918;29;20053;-78
2023/12/16 08:50:58;;;;;;;30.38;27.60;;;7.20;99.90;;;;;;4889073;29;20051;-77
2023/12/16 08:53:26;;;;;;;34.85;28.98;;;7.20;99.90;;;;;;4883319;29;20589;-82
2023/12/16 08:55:53;;;;;;;32.25;29.25;;;7.30;99.90;;;;;;4888976;29;20040;-77
2023/12/16 08:58:20;;;;;;;33.47;30.75;;;7.30;99.90;;;;;;4886030;29;20044;-78
2023/12/16 09:00:48;;;;;;;37.85;29.67;;;7.30;99.90;;;;;;4888317;29;20052;-77
2023/12/16 09:03:15;;;;;;;32.53;29.35;;;7.30;99.90;;;;;;4884669;29;20085;-78
2023/12/16 09:05:42;;;;;;;32.30;28.77;;;7.30;99.90;;;;;;4872944;29;20059;-78
2023/12/16 09:08:10;;;;;;;30.63;27.98;;;7.40;99.90;;;;;;4881861;29;20144;-77
2023/12/16 09:10:36;;;;;;;33.47;28.73;;;7.40;99.90;;;;;;4912020;29;20243;-78
2023/12/16 09:13:03;;;;;;;35.80;28.42;;;7.40;99.90;;;;;;4882695;29;20119;-79
2023/12/16 09:15:30;;;;;;;30.77;27.48;;;7.40;99.90;;;;;;4887293;29;20047;-78
2023/12/16 09:17:57;;;;;;;36.47;25.58;;;7.40;99.90;;;;;;4905313;29;20044;-79
2023/12/16 09:20:24;;;;;;;31.63;27.25;;;7.50;99.90;;;;;;4879245;29;20036;-79
2023/12/16 09:22:51;;;;;;;29.58;26.30;;;7.40;99.90;;;;;;4900962;29;20090;-77
2023/12/16 09:25:18;;;;;;;30.17;27.17;;;7.50;99.90;;;;;;4877673;29;20074;-79
2023/12/16 09:27:46;;;;;;;30.92;27.63;;;7.50;99.90;;;;;;4882331;29;20067;-79
2023/12/16 09:30:14;;;;;;;33.70;30.40;;;7.50;99.90;;;;;;4884289;29;20052;-79
2023/12/16 09:32:45;;;;;;;30.25;27.20;;;7.50;99.90;;;;;;4871864;29;20068;-79
2023/12/16 09:35:12;;;;;;;28.88;25.20;;;7.50;99.90;;;;;;4891319;29;20724;-79
2023/12/16 09:37:39;;;;;;;30.48;26.77;;;7.70;99.90;;;;;;4901441;29;20468;-78
2023/12/16 09:40:07;;;;;;;30.73;27.83;;;7.60;99.90;;;;;;4922943;29;20092;-79
2023/12/16 09:42:37;;;;;;;30.85;27.55;;;7.70;99.90;;;;;;4905491;29;20069;-79
2023/12/16 09:45:05;;;;;;;34.53;29.92;;;7.70;99.90;;;;;;4896591;29;20048;-79
2023/12/16 09:47:32;;;;;;;29.85;26.83;;;7.70;99.90;;;;;;4862710;29;20130;-80
2023/12/16 09:49:59;;;;;;;37.40;27.73;;;7.70;99.90;;;;;;4865505;29;20083;-79
2023/12/16 09:52:29;;;;;;;34.80;30.60;;;7.70;99.90;;;;;;4887355;29;20219;-79
2023/12/16 09:54:56;;;;;;;36.33;29.75;;;7.70;99.90;;;;;;4861878;29;20055;-79
2023/12/16 09:57:25;;;;;;;34.42;30.25;;;7.80;99.90;;;;;;4872285;29;20070;-79
2023/12/16 09:59:54;;;;;;;34.88;31.08;;;7.80;99.90;;;;;;4882795;29;20056;-79
2023/12/16 10:02:28;;;;;;;32.60;29.58;;;7.80;99.90;;;;;;4898245;29;20059;-79
2023/12/16 10:04:58;;;;;;;31.70;28.92;;;7.80;99.90;;;;;;4882971;29;20115;-79
2023/12/16 10:07:25;;;;;;;36.53;33.03;;;7.80;99.90;;;;;;4877173;29;20063;-80
2023/12/16 10:09:53;;;;;;;36.22;32.55;;;7.90;99.90;;;;;;4890953;29;20063;-79
2023/12/16 10:12:20;;;;;;;38.33;35.35;;;7.90;99.90;;;;;;4890942;29;20063;-79
2023/12/16 10:14:48;;;;;;;38.55;34.97;;;8.00;99.90;;;;;;4867695;29;20052;-79
2023/12/16 10:17:17;;;;;;;37.30;33.72;;;8.00;99.90;;;;;;4893310;29;20052;-79
2023/12/16 10:19:44;;;;;;;36.70;33.35;;;8.10;99.90;;;;;;4899436;29;20052;-80
2023/12/16 10:22:16;;;;;;;28.27;24.13;;;8.20;99.90;;;;;;4887397;29;20067;-79
2023/12/16 10:24:45;;;;;;;27.75;25.17;;;8.20;99.90;;;;;;4901223;29;20126;-81
2023/12/16 10:27:12;;;;;;;30.80;24.63;;;8.20;99.90;;;;;;4866896;29;20087;-82
2023/12/16 10:29:40;;;;;;;35.45;30.30;;;8.30;99.90;;;;;;4893632;29;20055;-79
2023/12/16 10:32:26;;;;;;;32.83;29.08;;;8.30;99.90;;;;;;4899381;29;20055;-79
2023/12/16 10:34:53;;;;;;;36.28;27.13;;;8.30;99.90;;;;;;4864847;29;20458;-78
2023/12/16 10:37:21;;;;;;;30.35;27.08;;;8.20;99.90;;;;;;4891070;29;20071;-79
2023/12/16 10:39:47;;;;;;;36.92;28.25;;;8.40;99.90;;;;;;4907468;29;20056;-78
2023/12/16 10:42:14;;;;;;;34.20;28.02;;;8.50;99.90;;;;;;4893863;29;20150;-78
2023/12/16 10:44:43;;;;;;;31.08;26.58;;;8.70;99.90;;;;;;4884177;29;20115;-79
2023/12/16 10:47:14;;;;;;;29.58;25.73;;;8.70;99.90;;;;;;4901963;29;20040;-77
2023/12/16 10:49:44;;;;;;;38.17;34.05;;;8.60;99.90;;;;;;4886606;29;20064;-78
2023/12/16 10:52:13;;;;;;;28.23;25.42;;;8.60;99.90;;;;;;4899176;29;20059;-78
2023/12/16 10:54:46;;;;;;;40.13;28.67;;;8.80;99.90;;;;;;4876397;29;20060;-79
2023/12/16 10:57:31;;;;;;;31.75;28.48;;;8.80;99.90;;;;;;4894211;29;20054;-79
2023/12/16 11:00:06;;;;;;;35.33;31.60;;;8.90;99.90;;;;;;4886362;29;20050;-79
2023/12/16 11:02:41;;;;;;;33.42;29.95;;;8.90;99.90;;;;;;4892099;29;20055;-78
2023/12/16 11:05:31;;;;;;;33.45;29.17;;;8.90;99.90;;;;;;4885065;29;20051;-79
2023/12/16 11:08:02;;;;;;;31.63;29.13;;;8.90;99.90;;;;;;4872401;29;20052;-80
2023/12/16 11:10:33;;;;;;;31.08;28.20;;;8.80;99.90;;;;;;4876975;29;20565;-80
2023/12/16 11:13:02;;;;;;;30.00;27.23;;;8.90;99.90;;;;;;4902455;29;20048;-80
2023/12/16 11:15:34;;;;;;;30.40;27.23;;;8.90;99.90;;;;;;4871300;29;20063;-80
2023/12/16 11:18:21;;;;;;;38.28;26.10;;;9.00;99.90;;;;;;4870753;29;20052;-80
2023/12/16 11:20:50;;;;;;;30.38;27.20;;;9.00;99.90;;;;;;4906027;29;20120;-80
2023/12/16 11:23:18;;;;;;;46.33;29.35;;;9.00;99.90;;;;;;4881459;29;20060;-80
2023/12/16 11:25:47;;;;;;;33.53;28.92;;;9.00;99.90;;;;;;4881805;29;20076;-80
2023/12/16 11:28:14;;;;;;;37.78;26.40;;;9.00;99.90;;;;;;4878525;29;20448;-80
2023/12/16 11:30:41;;;;;;;30.98;27.67;;;9.10;99.90;;;;;;4882592;29;20052;-80
2023/12/16 11:33:08;;;;;;;31.85;26.38;;;9.00;99.90;;;;;;4894015;29;20120;-81
2023/12/16 11:35:36;;;;;;;36.05;26.92;;;9.00;99.90;;;;;;4896621;29;20044;-79
2023/12/16 11:38:03;;;;;;;27.88;25.27;;;8.90;99.90;;;;;;4884220;29;20055;-80
2023/12/16 11:40:41;;;;;;;27.35;24.73;;;9.00;99.90;;;;;;4870420;29;20122;-80
2023/12/16 11:43:10;;;;;;;32.17;26.20;;;9.00;99.90;;;;;;4892372;29;20052;-84
2023/12/16 11:45:46;;;;;;;32.95;27.30;;;9.00;99.90;;;;;;4900290;29;20051;-84
2023/12/16 11:48:15;;;;;;;34.72;31.05;;;8.90;99.90;;;;;;4918654;29;20059;-83
2023/12/16 11:50:46;;;;;;;31.92;28.75;;;8.90;99.90;;;;;;4906327;29;20052;-80
2023/12/16 11:53:17;;;;;;;43.50;30.52;;;8.90;99.90;;;;;;4915250;29;20060;-81
2023/12/16 11:55:44;;;;;;;38.58;30.05;;;8.80;99.90;;;;;;4894131;29;20052;-80
2023/12/16 11:58:12;;;;;;;32.45;27.73;;;8.90;99.90;;;;;;4884734;29;20135;-81
2023/12/16 12:00:40;;;;;;;34.10;30.70;;;8.90;99.90;;;;;;4893470;29;20059;-81
2023/12/16 12:03:08;;;;;;;37.38;29.33;;;8.90;99.90;;;;;;4895026;29;20559;-81
2023/12/16 12:05:36;;;;;;;32.83;29.55;;;8.90;99.90;;;;;;4891061;29;20052;-81
2023/12/16 12:08:05;;;;;;;34.83;31.02;;;8.90;99.90;;;;;;4889503;29;20645;-80
2023/12/16 12:10:36;;;;;;;44.10;33.58;;;8.90;99.90;;;;;;4873273;29;20526;-80
2023/12/16 12:13:04;;;;;;;36.13;32.35;;;8.80;99.90;;;;;;4887447;29;20726;-80
2023/12/16 12:15:32;;;;;;;35.58;31.83;;;8.90;99.90;;;;;;4856222;29;20972;-81
2023/12/16 12:17:59;;;;;;;31.48;28.50;;;8.90;99.90;;;;;;4887262;29;20052;-81
2023/12/16 12:20:28;;;;;;;30.88;27.38;;;8.90;99.90;;;;;;4890294;29;20056;-81
2023/12/16 12:22:56;;;;;;;32.63;26.88;;;8.90;99.90;;;;;;4893773;29;20279;-81
2023/12/16 12:25:23;;;;;;;31.20;24.48;;;9.00;99.90;;;;;;4884758;29;20066;-83
2023/12/16 12:27:50;;;;;;;26.77;24.13;;;9.00;99.90;;;;;;4902696;29;20048;-83
2023/12/16 12:30:20;;;;;;;31.67;24.15;;;8.90;99.90;;;;;;4907124;29;20623;-82
2023/12/16 12:32:48;;;;;;;32.35;25.33;;;8.90;99.90;;;;;;4894647;29;20052;-83
2023/12/16 12:35:15;;;;;;;32.33;24.70;;;9.00;99.90;;;;;;4878102;29;20093;-82
2023/12/16 12:37:46;;;;;;;33.88;24.83;;;9.00;99.90;;;;;;4874438;29;20060;-81